sensor_id;sensor_type;location;lat;lon;timestamp;P1;durP1;ratioP1;P2;durP2;ratioP2
69240;SDS011;56352;55.750;13.198;2023-03-20T00:00:13;40.17;;;23.60;;
69240;SDS011;56352;55.750;13.198;2023-03-20T00:02:41;41.05;;;23.67;;
69240;SDS011;56352;55.750;13.198;2023-03-20T00:05:14;40.95;;;24.95;;
69240;SDS011;56352;55.750;13.198;2023-03-20T00:07:41;38.55;;;23.65;;
69240;SDS011;56352;55.750;13.198;2023-03-20T00:10:08;41.42;;;23.33;;
69240;SDS011;56352;55.750;13.198;2023-03-20T00:12:35;40.65;;;24.17;;
69240;SDS011;56352;55.750;13.198;2023-03-20T00:15:02;39.13;;;23.08;;
69240;SDS011;56352;55.750;13.198;2023-03-20T00:17:30;38.47;;;22.75;;
69240;SDS011;56352;55.750;13.198;2023-03-20T00:19:56;36.42;;;23.65;;
69240;SDS011;56352;55.750;13.198;2023-03-20T00:22:23;44.30;;;25.38;;
69240;SDS011;56352;55.750;13.198;2023-03-20T00:24:49;38.10;;;24.02;;
69240;SDS011;56352;55.750;13.198;2023-03-20T00:27:16;36.78;;;23.67;;
69240;SDS011;56352;55.750;13.198;2023-03-20T00:29:42;42.90;;;25.77;;
69240;SDS011;56352;55.750;13.198;2023-03-20T00:32:12;45.83;;;26.65;;
69240;SDS011;56352;55.750;13.198;2023-03-20T00:37:05;45.65;;;25.48;;
69240;SDS011;56352;55.750;13.198;2023-03-20T00:39:31;46.22;;;25.23;;
69240;SDS011;56352;55.750;13.198;2023-03-20T00:42:01;46.50;;;26.52;;
69240;SDS011;56352;55.750;13.198;2023-03-20T00:44:29;42.45;;;26.05;;
69240;SDS011;56352;55.750;13.198;2023-03-20T00:46:58;44.90;;;27.33;;
69240;SDS011;56352;55.750;13.198;2023-03-20T00:49:26;44.93;;;27.07;;
69240;SDS011;56352;55.750;13.198;2023-03-20T00:51:53;50.35;;;27.95;;
69240;SDS011;56352;55.750;13.198;2023-03-20T00:54:20;43.42;;;26.33;;
69240;SDS011;56352;55.750;13.198;2023-03-20T00:56:49;47.10;;;28.58;;
69240;SDS011;56352;55.750;13.198;2023-03-20T00:59:21;47.42;;;27.75;;
69240;SDS011;56352;55.750;13.198;2023-03-20T01:01:48;42.97;;;26.07;;
69240;SDS011;56352;55.750;13.198;2023-03-20T01:04:16;46.88;;;27.00;;
69240;SDS011;56352;55.750;13.198;2023-03-20T01:06:43;50.33;;;28.48;;
69240;SDS011;56352;55.750;13.198;2023-03-20T01:09:10;45.00;;;27.67;;
69240;SDS011;56352;55.750;13.198;2023-03-20T01:11:36;49.75;;;28.05;;
69240;SDS011;56352;55.750;13.198;2023-03-20T01:14:04;51.20;;;28.67;;
69240;SDS011;56352;55.750;13.198;2023-03-20T01:16:31;46.17;;;29.10;;
69240;SDS011;56352;55.750;13.198;2023-03-20T01:18:57;47.17;;;27.67;;
69240;SDS011;56352;55.750;13.198;2023-03-20T01:21:24;49.75;;;28.38;;
69240;SDS011;56352;55.750;13.198;2023-03-20T01:23:50;44.95;;;26.88;;
69240;SDS011;56352;55.750;13.198;2023-03-20T01:26:29;50.83;;;28.80;;
69240;SDS011;56352;55.750;13.198;2023-03-20T01:28:57;45.50;;;27.80;;
69240;SDS011;56352;55.750;13.198;2023-03-20T01:31:23;48.67;;;28.95;;
69240;SDS011;56352;55.750;13.198;2023-03-20T01:33:50;53.00;;;31.00;;
69240;SDS011;56352;55.750;13.198;2023-03-20T01:36:18;55.88;;;29.27;;
69240;SDS011;56352;55.750;13.198;2023-03-20T01:38:53;46.67;;;29.33;;
69240;SDS011;56352;55.750;13.198;2023-03-20T01:41:20;57.17;;;29.90;;
69240;SDS011;56352;55.750;13.198;2023-03-20T01:43:48;50.70;;;28.52;;
69240;SDS011;56352;55.750;13.198;2023-03-20T01:51:24;53.97;;;29.75;;
69240;SDS011;56352;55.750;13.198;2023-03-20T01:56:27;52.30;;;29.42;;
69240;SDS011;56352;55.750;13.198;2023-03-20T01:58:57;55.03;;;31.08;;
69240;SDS011;56352;55.750;13.198;2023-03-20T02:01:25;58.17;;;31.50;;
69240;SDS011;56352;55.750;13.198;2023-03-20T02:03:52;55.58;;;30.20;;
69240;SDS011;56352;55.750;13.198;2023-03-20T02:06:19;58.63;;;31.65;;
69240;SDS011;56352;55.750;13.198;2023-03-20T02:08:48;57.30;;;30.42;;
69240;SDS011;56352;55.750;13.198;2023-03-20T02:11:15;55.47;;;31.48;;
69240;SDS011;56352;55.750;13.198;2023-03-20T02:13:43;55.72;;;30.50;;
69240;SDS011;56352;55.750;13.198;2023-03-20T02:16:11;53.17;;;30.00;;
69240;SDS011;56352;55.750;13.198;2023-03-20T02:18:39;62.92;;;32.22;;
69240;SDS011;56352;55.750;13.198;2023-03-20T02:31:30;62.70;;;32.45;;
69240;SDS011;56352;55.750;13.198;2023-03-20T02:34:08;61.60;;;30.98;;
69240;SDS011;56352;55.750;13.198;2023-03-20T02:39:46;53.33;;;27.90;;
69240;SDS011;56352;55.750;13.198;2023-03-20T02:42:24;53.10;;;27.33;;
69240;SDS011;56352;55.750;13.198;2023-03-20T02:45:11;45.83;;;24.92;;
69240;SDS011;56352;55.750;13.198;2023-03-20T02:47:47;47.95;;;26.13;;
69240;SDS011;56352;55.750;13.198;2023-03-20T02:55:25;39.63;;;21.40;;
69240;SDS011;56352;55.750;13.198;2023-03-20T03:00:27;43.90;;;21.38;;
69240;SDS011;56352;55.750;13.198;2023-03-20T03:02:57;40.45;;;20.63;;
69240;SDS011;56352;55.750;13.198;2023-03-20T03:05:26;40.90;;;22.33;;
69240;SDS011;56352;55.750;13.198;2023-03-20T03:07:55;34.95;;;18.65;;
69240;SDS011;56352;55.750;13.198;2023-03-20T03:10:29;39.50;;;18.42;;
69240;SDS011;56352;55.750;13.198;2023-03-20T03:12:57;35.78;;;17.73;;
69240;SDS011;56352;55.750;13.198;2023-03-20T03:15:26;31.02;;;17.73;;
69240;SDS011;56352;55.750;13.198;2023-03-20T03:17:54;31.20;;;17.35;;
69240;SDS011;56352;55.750;13.198;2023-03-20T03:25:20;25.02;;;13.68;;
69240;SDS011;56352;55.750;13.198;2023-03-20T03:27:48;26.88;;;13.50;;
69240;SDS011;56352;55.750;13.198;2023-03-20T03:30:22;26.80;;;13.63;;
69240;SDS011;56352;55.750;13.198;2023-03-20T03:32:50;27.90;;;14.05;;
69240;SDS011;56352;55.750;13.198;2023-03-20T03:35:19;27.98;;;13.25;;
69240;SDS011;56352;55.750;13.198;2023-03-20T03:45:21;30.92;;;14.40;;
69240;SDS011;56352;55.750;13.198;2023-03-20T03:47:51;38.30;;;16.60;;
69240;SDS011;56352;55.750;13.198;2023-03-20T03:50:20;36.55;;;16.33;;
69240;SDS011;56352;55.750;13.198;2023-03-20T03:52:48;32.35;;;14.88;;
69240;SDS011;56352;55.750;13.198;2023-03-20T03:55:20;33.75;;;15.52;;
69240;SDS011;56352;55.750;13.198;2023-03-20T03:57:50;31.23;;;14.80;;
69240;SDS011;56352;55.750;13.198;2023-03-20T04:00:18;29.67;;;14.05;;
69240;SDS011;56352;55.750;13.198;2023-03-20T04:02:47;30.85;;;14.27;;
69240;SDS011;56352;55.750;13.198;2023-03-20T04:05:15;30.02;;;12.93;;
69240;SDS011;56352;55.750;13.198;2023-03-20T04:07:45;29.38;;;12.30;;
69240;SDS011;56352;55.750;13.198;2023-03-20T04:10:13;26.17;;;11.20;;
69240;SDS011;56352;55.750;13.198;2023-03-20T04:12:40;24.85;;;10.95;;
69240;SDS011;56352;55.750;13.198;2023-03-20T04:15:07;24.50;;;10.75;;
69240;SDS011;56352;55.750;13.198;2023-03-20T04:17:34;22.17;;;10.23;;
69240;SDS011;56352;55.750;13.198;2023-03-20T04:20:00;18.95;;;9.10;;
69240;SDS011;56352;55.750;13.198;2023-03-20T04:22:27;14.73;;;8.02;;
69240;SDS011;56352;55.750;13.198;2023-03-20T04:24:53;13.00;;;8.25;;
69240;SDS011;56352;55.750;13.198;2023-03-20T04:27:19;18.80;;;8.55;;
69240;SDS011;56352;55.750;13.198;2023-03-20T04:29:46;13.95;;;6.57;;
69240;SDS011;56352;55.750;13.198;2023-03-20T04:32:13;12.05;;;6.43;;
69240;SDS011;56352;55.750;13.198;2023-03-20T04:34:39;12.80;;;6.60;;
69240;SDS011;56352;55.750;13.198;2023-03-20T04:37:06;16.23;;;6.40;;
69240;SDS011;56352;55.750;13.198;2023-03-20T04:39:33;13.73;;;6.47;;
69240;SDS011;56352;55.750;13.198;2023-03-20T04:42:02;11.13;;;5.45;;
69240;SDS011;56352;55.750;13.198;2023-03-20T04:44:29;13.07;;;5.90;;
69240;SDS011;56352;55.750;13.198;2023-03-20T04:46:56;13.48;;;6.60;;
69240;SDS011;56352;55.750;13.198;2023-03-20T04:49:23;12.30;;;5.97;;
69240;SDS011;56352;55.750;13.198;2023-03-20T04:51:49;11.32;;;5.55;;
69240;SDS011;56352;55.750;13.198;2023-03-20T04:54:16;11.40;;;6.15;;
69240;SDS011;56352;55.750;13.198;2023-03-20T04:56:42;10.68;;;5.93;;
69240;SDS011;56352;55.750;13.198;2023-03-20T04:59:09;15.82;;;6.78;;
69240;SDS011;56352;55.750;13.198;2023-03-20T05:01:35;12.85;;;6.47;;
69240;SDS011;56352;55.750;13.198;2023-03-20T05:04:02;12.07;;;6.13;;
69240;SDS011;56352;55.750;13.198;2023-03-20T05:06:31;13.07;;;6.80;;
69240;SDS011;56352;55.750;13.198;2023-03-20T05:08:58;14.23;;;6.30;;
69240;SDS011;56352;55.750;13.198;2023-03-20T05:11:26;13.23;;;6.43;;
69240;SDS011;56352;55.750;13.198;2023-03-20T05:13:53;12.55;;;5.97;;
69240;SDS011;56352;55.750;13.198;2023-03-20T05:16:19;10.50;;;5.88;;
69240;SDS011;56352;55.750;13.198;2023-03-20T05:18:47;11.70;;;6.18;;
69240;SDS011;56352;55.750;13.198;2023-03-20T05:21:14;10.63;;;5.60;;
69240;SDS011;56352;55.750;13.198;2023-03-20T05:23:40;11.50;;;5.95;;
69240;SDS011;56352;55.750;13.198;2023-03-20T05:26:07;12.45;;;5.55;;
69240;SDS011;56352;55.750;13.198;2023-03-20T05:28:33;12.52;;;5.95;;
69240;SDS011;56352;55.750;13.198;2023-03-20T05:30:59;12.98;;;5.80;;
69240;SDS011;56352;55.750;13.198;2023-03-20T05:33:26;13.68;;;6.65;;
69240;SDS011;56352;55.750;13.198;2023-03-20T05:35:52;12.60;;;5.78;;
69240;SDS011;56352;55.750;13.198;2023-03-20T05:38:19;14.27;;;6.13;;
69240;SDS011;56352;55.750;13.198;2023-03-20T05:40:54;13.67;;;6.73;;
69240;SDS011;56352;55.750;13.198;2023-03-20T05:43:21;11.85;;;6.15;;
69240;SDS011;56352;55.750;13.198;2023-03-20T05:45:47;12.32;;;6.20;;
69240;SDS011;56352;55.750;13.198;2023-03-20T05:48:14;13.25;;;6.07;;
69240;SDS011;56352;55.750;13.198;2023-03-20T05:50:40;14.90;;;6.90;;
69240;SDS011;56352;55.750;13.198;2023-03-20T05:53:07;14.65;;;6.78;;
69240;SDS011;56352;55.750;13.198;2023-03-20T05:55:34;13.75;;;7.10;;
69240;SDS011;56352;55.750;13.198;2023-03-20T05:58:01;14.07;;;6.55;;
69240;SDS011;56352;55.750;13.198;2023-03-20T06:00:28;13.38;;;6.47;;
69240;SDS011;56352;55.750;13.198;2023-03-20T06:02:54;11.30;;;6.25;;
69240;SDS011;56352;55.750;13.198;2023-03-20T06:05:21;14.25;;;6.72;;
69240;SDS011;56352;55.750;13.198;2023-03-20T06:07:47;14.10;;;7.22;;
69240;SDS011;56352;55.750;13.198;2023-03-20T06:10:14;15.77;;;7.60;;
69240;SDS011;56352;55.750;13.198;2023-03-20T06:12:40;15.70;;;7.22;;
69240;SDS011;56352;55.750;13.198;2023-03-20T06:15:06;19.27;;;7.18;;
69240;SDS011;56352;55.750;13.198;2023-03-20T06:17:33;12.68;;;6.70;;
69240;SDS011;56352;55.750;13.198;2023-03-20T06:20:00;16.35;;;7.72;;
69240;SDS011;56352;55.750;13.198;2023-03-20T06:22:26;13.73;;;7.53;;
69240;SDS011;56352;55.750;13.198;2023-03-20T06:24:53;13.48;;;7.95;;
69240;SDS011;56352;55.750;13.198;2023-03-20T06:27:22;17.70;;;8.57;;
69240;SDS011;56352;55.750;13.198;2023-03-20T06:29:48;16.00;;;7.90;;
69240;SDS011;56352;55.750;13.198;2023-03-20T06:32:15;15.20;;;8.13;;
69240;SDS011;56352;55.750;13.198;2023-03-20T06:34:42;16.10;;;7.78;;
69240;SDS011;56352;55.750;13.198;2023-03-20T06:37:09;17.85;;;8.70;;
69240;SDS011;56352;55.750;13.198;2023-03-20T06:39:36;21.30;;;9.48;;
69240;SDS011;56352;55.750;13.198;2023-03-20T06:42:02;17.67;;;8.00;;
69240;SDS011;56352;55.750;13.198;2023-03-20T06:44:29;19.65;;;9.70;;
69240;SDS011;56352;55.750;13.198;2023-03-20T06:46:55;17.85;;;9.05;;
69240;SDS011;56352;55.750;13.198;2023-03-20T06:49:22;17.10;;;8.75;;
69240;SDS011;56352;55.750;13.198;2023-03-20T06:51:48;16.45;;;8.88;;
69240;SDS011;56352;55.750;13.198;2023-03-20T06:54:15;17.92;;;8.70;;
69240;SDS011;56352;55.750;13.198;2023-03-20T06:56:41;16.35;;;9.27;;
69240;SDS011;56352;55.750;13.198;2023-03-20T06:59:08;20.42;;;8.98;;
69240;SDS011;56352;55.750;13.198;2023-03-20T07:01:34;17.02;;;8.13;;
69240;SDS011;56352;55.750;13.198;2023-03-20T07:04:02;18.40;;;8.65;;
69240;SDS011;56352;55.750;13.198;2023-03-20T07:06:28;16.45;;;8.30;;
69240;SDS011;56352;55.750;13.198;2023-03-20T07:08:55;18.98;;;9.25;;
69240;SDS011;56352;55.750;13.198;2023-03-20T07:11:21;20.73;;;8.98;;
69240;SDS011;56352;55.750;13.198;2023-03-20T07:13:48;15.90;;;8.20;;
69240;SDS011;56352;55.750;13.198;2023-03-20T07:16:15;17.38;;;8.52;;
69240;SDS011;56352;55.750;13.198;2023-03-20T07:18:42;16.38;;;8.13;;
69240;SDS011;56352;55.750;13.198;2023-03-20T07:21:09;14.75;;;7.53;;
69240;SDS011;56352;55.750;13.198;2023-03-20T07:23:36;15.48;;;7.68;;
69240;SDS011;56352;55.750;13.198;2023-03-20T07:26:03;14.93;;;8.27;;
69240;SDS011;56352;55.750;13.198;2023-03-20T07:28:31;17.20;;;7.60;;
69240;SDS011;56352;55.750;13.198;2023-03-20T07:30:57;12.88;;;7.22;;
69240;SDS011;56352;55.750;13.198;2023-03-20T07:33:23;14.18;;;6.97;;
69240;SDS011;56352;55.750;13.198;2023-03-20T07:35:51;11.48;;;6.47;;
69240;SDS011;56352;55.750;13.198;2023-03-20T07:38:17;15.65;;;7.20;;
69240;SDS011;56352;55.750;13.198;2023-03-20T07:40:44;11.95;;;6.70;;
69240;SDS011;56352;55.750;13.198;2023-03-20T07:43:10;10.55;;;6.22;;
69240;SDS011;56352;55.750;13.198;2023-03-20T07:45:37;13.75;;;6.57;;
69240;SDS011;56352;55.750;13.198;2023-03-20T07:48:04;10.73;;;5.85;;
69240;SDS011;56352;55.750;13.198;2023-03-20T07:50:31;12.05;;;5.88;;
69240;SDS011;56352;55.750;13.198;2023-03-20T07:52:57;10.07;;;5.70;;
69240;SDS011;56352;55.750;13.198;2023-03-20T07:55:23;9.43;;;5.25;;
69240;SDS011;56352;55.750;13.198;2023-03-20T07:57:50;11.00;;;5.55;;
69240;SDS011;56352;55.750;13.198;2023-03-20T08:00:17;8.77;;;5.65;;
69240;SDS011;56352;55.750;13.198;2023-03-20T08:02:44;10.77;;;5.65;;
69240;SDS011;56352;55.750;13.198;2023-03-20T08:05:10;9.70;;;5.85;;
69240;SDS011;56352;55.750;13.198;2023-03-20T08:07:37;11.75;;;5.68;;
69240;SDS011;56352;55.750;13.198;2023-03-20T08:10:04;9.23;;;4.95;;
69240;SDS011;56352;55.750;13.198;2023-03-20T08:12:30;9.25;;;5.13;;
69240;SDS011;56352;55.750;13.198;2023-03-20T08:14:57;7.97;;;5.20;;
69240;SDS011;56352;55.750;13.198;2023-03-20T08:17:23;10.85;;;5.68;;
69240;SDS011;56352;55.750;13.198;2023-03-20T08:19:50;7.57;;;4.70;;
69240;SDS011;56352;55.750;13.198;2023-03-20T08:22:17;8.45;;;4.53;;
69240;SDS011;56352;55.750;13.198;2023-03-20T08:24:43;8.82;;;5.30;;
69240;SDS011;56352;55.750;13.198;2023-03-20T08:27:09;7.25;;;4.60;;
69240;SDS011;56352;55.750;13.198;2023-03-20T08:29:36;6.03;;;4.28;;
69240;SDS011;56352;55.750;13.198;2023-03-20T08:32:02;6.57;;;4.20;;
69240;SDS011;56352;55.750;13.198;2023-03-20T08:34:30;6.05;;;3.75;;
69240;SDS011;56352;55.750;13.198;2023-03-20T08:36:57;6.38;;;3.90;;
69240;SDS011;56352;55.750;13.198;2023-03-20T08:39:23;6.40;;;3.95;;
69240;SDS011;56352;55.750;13.198;2023-03-20T08:41:50;5.72;;;3.50;;
69240;SDS011;56352;55.750;13.198;2023-03-20T08:44:16;5.70;;;3.78;;
69240;SDS011;56352;55.750;13.198;2023-03-20T08:46:43;4.55;;;3.47;;
69240;SDS011;56352;55.750;13.198;2023-03-20T08:49:11;7.07;;;3.05;;
69240;SDS011;56352;55.750;13.198;2023-03-20T08:51:37;4.25;;;2.90;;
69240;SDS011;56352;55.750;13.198;2023-03-20T08:54:04;4.30;;;2.97;;
69240;SDS011;56352;55.750;13.198;2023-03-20T08:56:31;4.47;;;3.03;;
69240;SDS011;56352;55.750;13.198;2023-03-20T08:58:57;4.57;;;3.45;;
69240;SDS011;56352;55.750;13.198;2023-03-20T09:01:24;5.82;;;3.13;;
69240;SDS011;56352;55.750;13.198;2023-03-20T09:04:07;4.53;;;3.10;;
69240;SDS011;56352;55.750;13.198;2023-03-20T09:06:37;6.35;;;3.13;;
69240;SDS011;56352;55.750;13.198;2023-03-20T09:09:03;4.00;;;2.47;;
69240;SDS011;56352;55.750;13.198;2023-03-20T09:11:30;4.68;;;3.33;;
69240;SDS011;56352;55.750;13.198;2023-03-20T09:13:57;5.95;;;3.13;;
69240;SDS011;56352;55.750;13.198;2023-03-20T09:16:24;4.30;;;3.00;;
69240;SDS011;56352;55.750;13.198;2023-03-20T09:18:51;3.67;;;2.78;;
69240;SDS011;56352;55.750;13.198;2023-03-20T09:21:18;4.55;;;2.75;;
69240;SDS011;56352;55.750;13.198;2023-03-20T09:23:44;4.97;;;2.80;;
69240;SDS011;56352;55.750;13.198;2023-03-20T09:26:10;4.82;;;2.92;;
69240;SDS011;56352;55.750;13.198;2023-03-20T09:28:37;5.05;;;3.35;;
69240;SDS011;56352;55.750;13.198;2023-03-20T09:31:04;4.78;;;3.85;;
69240;SDS011;56352;55.750;13.198;2023-03-20T09:33:30;4.30;;;3.30;;
69240;SDS011;56352;55.750;13.198;2023-03-20T09:35:57;4.97;;;3.25;;
69240;SDS011;56352;55.750;13.198;2023-03-20T09:38:23;5.38;;;3.28;;
69240;SDS011;56352;55.750;13.198;2023-03-20T09:40:58;4.28;;;3.30;;
69240;SDS011;56352;55.750;13.198;2023-03-20T09:43:31;4.95;;;3.47;;
69240;SDS011;56352;55.750;13.198;2023-03-20T09:48:48;4.97;;;2.97;;
69240;SDS011;56352;55.750;13.198;2023-03-20T09:51:22;4.63;;;2.67;;
69240;SDS011;56352;55.750;13.198;2023-03-20T09:53:57;4.10;;;3.17;;
69240;SDS011;56352;55.750;13.198;2023-03-20T09:56:26;4.68;;;2.75;;
69240;SDS011;56352;55.750;13.198;2023-03-20T09:58:55;4.13;;;3.30;;
69240;SDS011;56352;55.750;13.198;2023-03-20T10:01:23;4.63;;;2.80;;
69240;SDS011;56352;55.750;13.198;2023-03-20T10:03:53;5.05;;;3.25;;
69240;SDS011;56352;55.750;13.198;2023-03-20T10:06:21;4.63;;;3.03;;
69240;SDS011;56352;55.750;13.198;2023-03-20T10:08:47;4.05;;;2.90;;
69240;SDS011;56352;55.750;13.198;2023-03-20T10:21:35;3.55;;;2.28;;
69240;SDS011;56352;55.750;13.198;2023-03-20T10:24:05;3.72;;;2.08;;
69240;SDS011;56352;55.750;13.198;2023-03-20T10:26:35;4.43;;;2.67;;
69240;SDS011;56352;55.750;13.198;2023-03-20T10:29:05;4.03;;;2.28;;
69240;SDS011;56352;55.750;13.198;2023-03-20T10:41:53;3.65;;;2.50;;
69240;SDS011;56352;55.750;13.198;2023-03-20T10:44:26;2.80;;;2.15;;
69240;SDS011;56352;55.750;13.198;2023-03-20T10:46:54;3.53;;;2.60;;
69240;SDS011;56352;55.750;13.198;2023-03-20T10:49:29;4.15;;;2.40;;
69240;SDS011;56352;55.750;13.198;2023-03-20T10:51:57;3.53;;;2.22;;
69240;SDS011;56352;55.750;13.198;2023-03-20T10:54:26;3.20;;;2.45;;
69240;SDS011;56352;55.750;13.198;2023-03-20T10:56:54;4.05;;;2.60;;
69240;SDS011;56352;55.750;13.198;2023-03-20T11:01:51;3.58;;;2.20;;
69240;SDS011;56352;55.750;13.198;2023-03-20T11:04:18;3.72;;;2.30;;
69240;SDS011;56352;55.750;13.198;2023-03-20T11:09:18;3.03;;;2.20;;
69240;SDS011;56352;55.750;13.198;2023-03-20T11:11:45;4.20;;;2.33;;
69240;SDS011;56352;55.750;13.198;2023-03-20T11:14:16;3.85;;;2.28;;
69240;SDS011;56352;55.750;13.198;2023-03-20T11:16:47;3.92;;;2.20;;
69240;SDS011;56352;55.750;13.198;2023-03-20T11:19:15;3.67;;;2.30;;
69240;SDS011;56352;55.750;13.198;2023-03-20T11:21:47;3.63;;;1.77;;
69240;SDS011;56352;55.750;13.198;2023-03-20T11:26:49;3.95;;;2.20;;
69240;SDS011;56352;55.750;13.198;2023-03-20T11:29:20;3.80;;;2.03;;
69240;SDS011;56352;55.750;13.198;2023-03-20T11:31:49;3.40;;;2.10;;
69240;SDS011;56352;55.750;13.198;2023-03-20T11:36:46;2.20;;;1.75;;
69240;SDS011;56352;55.750;13.198;2023-03-20T11:39:34;3.78;;;2.35;;
69240;SDS011;56352;55.750;13.198;2023-03-20T11:42:03;2.38;;;1.80;;
69240;SDS011;56352;55.750;13.198;2023-03-20T11:44:34;2.42;;;1.73;;
69240;SDS011;56352;55.750;13.198;2023-03-20T11:47:02;2.60;;;1.92;;
69240;SDS011;56352;55.750;13.198;2023-03-20T11:49:33;2.70;;;1.85;;
69240;SDS011;56352;55.750;13.198;2023-03-20T11:52:11;3.17;;;2.00;;
69240;SDS011;56352;55.750;13.198;2023-03-20T11:54:38;2.20;;;1.90;;
69240;SDS011;56352;55.750;13.198;2023-03-20T11:57:57;3.55;;;1.85;;
69240;SDS011;56352;55.750;13.198;2023-03-20T12:02:40;3.78;;;2.00;;
69240;SDS011;56352;55.750;13.198;2023-03-20T12:08:14;2.33;;;1.90;;
69240;SDS011;56352;55.750;13.198;2023-03-20T12:10:42;3.25;;;1.90;;
69240;SDS011;56352;55.750;13.198;2023-03-20T12:13:12;2.35;;;1.90;;
69240;SDS011;56352;55.750;13.198;2023-03-20T12:15:41;2.30;;;2.00;;
69240;SDS011;56352;55.750;13.198;2023-03-20T12:23:22;4.13;;;1.98;;
69240;SDS011;56352;55.750;13.198;2023-03-20T12:28:40;3.40;;;2.45;;
69240;SDS011;56352;55.750;13.198;2023-03-20T12:33:59;2.75;;;2.22;;
69240;SDS011;56352;55.750;13.198;2023-03-20T12:38:53;2.25;;;1.50;;
69240;SDS011;56352;55.750;13.198;2023-03-20T12:41:35;2.72;;;1.83;;
69240;SDS011;56352;55.750;13.198;2023-03-20T12:51:33;3.92;;;1.75;;
69240;SDS011;56352;55.750;13.198;2023-03-20T12:56:47;2.33;;;1.60;;
69240;SDS011;56352;55.750;13.198;2023-03-20T13:04:55;2.78;;;2.00;;
69240;SDS011;56352;55.750;13.198;2023-03-20T13:07:18;3.70;;;1.50;;
69240;SDS011;56352;55.750;13.198;2023-03-20T13:20:30;2.73;;;1.97;;
69240;SDS011;56352;55.750;13.198;2023-03-20T13:23:09;2.10;;;1.90;;
69240;SDS011;56352;55.750;13.198;2023-03-20T13:28:32;2.50;;;2.08;;
69240;SDS011;56352;55.750;13.198;2023-03-20T13:36:20;2.55;;;1.90;;
69240;SDS011;56352;55.750;13.198;2023-03-20T13:38:54;2.80;;;2.08;;
69240;SDS011;56352;55.750;13.198;2023-03-20T13:41:23;2.72;;;2.30;;
69240;SDS011;56352;55.750;13.198;2023-03-20T13:46:23;4.13;;;2.17;;
69240;SDS011;56352;55.750;13.198;2023-03-20T13:48:51;2.58;;;1.88;;
69240;SDS011;56352;55.750;13.198;2023-03-20T13:51:30;2.77;;;1.80;;
69240;SDS011;56352;55.750;13.198;2023-03-20T13:54:45;4.20;;;1.80;;
69240;SDS011;56352;55.750;13.198;2023-03-20T14:04:20;3.50;;;1.42;;
69240;SDS011;56352;55.750;13.198;2023-03-20T14:06:49;2.38;;;1.92;;
69240;SDS011;56352;55.750;13.198;2023-03-20T14:14:31;1.63;;;1.20;;
69240;SDS011;56352;55.750;13.198;2023-03-20T14:19:37;1.60;;;1.27;;
69240;SDS011;56352;55.750;13.198;2023-03-20T14:22:03;3.00;;;1.30;;
69240;SDS011;56352;55.750;13.198;2023-03-20T14:24:31;2.08;;;1.70;;
69240;SDS011;56352;55.750;13.198;2023-03-20T14:27:00;2.22;;;1.70;;
69240;SDS011;56352;55.750;13.198;2023-03-20T14:29:34;1.55;;;1.27;;
69240;SDS011;56352;55.750;13.198;2023-03-20T14:32:21;1.98;;;1.48;;
69240;SDS011;56352;55.750;13.198;2023-03-20T14:39:57;2.27;;;1.80;;
69240;SDS011;56352;55.750;13.198;2023-03-20T14:42:30;7.97;;;4.30;;
69240;SDS011;56352;55.750;13.198;2023-03-20T14:55:47;3.60;;;3.30;;
69240;SDS011;56352;55.750;13.198;2023-03-20T15:01:05;3.55;;;3.25;;
69240;SDS011;56352;55.750;13.198;2023-03-20T15:03:32;2.35;;;1.85;;
69240;SDS011;56352;55.750;13.198;2023-03-20T15:06:00;3.20;;;1.90;;
69240;SDS011;56352;55.750;13.198;2023-03-20T15:08:30;2.28;;;1.60;;
69240;SDS011;56352;55.750;13.198;2023-03-20T15:10:57;3.35;;;3.00;;
69240;SDS011;56352;55.750;13.198;2023-03-20T15:13:25;2.55;;;2.13;;
69240;SDS011;56352;55.750;13.198;2023-03-20T15:15:55;2.63;;;2.22;;
69240;SDS011;56352;55.750;13.198;2023-03-20T15:18:23;2.70;;;2.20;;
69240;SDS011;56352;55.750;13.198;2023-03-20T15:20:50;2.22;;;1.90;;
69240;SDS011;56352;55.750;13.198;2023-03-20T15:23:16;4.50;;;1.80;;
69240;SDS011;56352;55.750;13.198;2023-03-20T15:25:44;2.80;;;2.30;;
69240;SDS011;56352;55.750;13.198;2023-03-20T15:28:12;4.22;;;2.22;;
69240;SDS011;56352;55.750;13.198;2023-03-20T15:30:39;3.83;;;1.77;;
69240;SDS011;56352;55.750;13.198;2023-03-20T15:33:13;2.67;;;2.17;;
69240;SDS011;56352;55.750;13.198;2023-03-20T15:35:41;3.35;;;1.85;;
69240;SDS011;56352;55.750;13.198;2023-03-20T15:38:07;2.50;;;1.80;;
69240;SDS011;56352;55.750;13.198;2023-03-20T15:40:39;2.42;;;1.70;;
69240;SDS011;56352;55.750;13.198;2023-03-20T15:45:42;2.08;;;1.70;;
69240;SDS011;56352;55.750;13.198;2023-03-20T15:48:16;2.58;;;1.80;;
69240;SDS011;56352;55.750;13.198;2023-03-20T15:50:43;3.22;;;2.10;;
69240;SDS011;56352;55.750;13.198;2023-03-20T15:53:16;2.47;;;1.80;;
69240;SDS011;56352;55.750;13.198;2023-03-20T15:55:49;2.53;;;1.90;;
69240;SDS011;56352;55.750;13.198;2023-03-20T15:58:16;2.83;;;2.03;;
69240;SDS011;56352;55.750;13.198;2023-03-20T16:00:44;2.72;;;1.88;;
69240;SDS011;56352;55.750;13.198;2023-03-20T16:03:15;3.40;;;1.70;;
69240;SDS011;56352;55.750;13.198;2023-03-20T16:05:45;2.35;;;1.60;;
69240;SDS011;56352;55.750;13.198;2023-03-20T16:10:47;3.50;;;1.63;;
69240;SDS011;56352;55.750;13.198;2023-03-20T16:13:14;3.50;;;1.90;;
69240;SDS011;56352;55.750;13.198;2023-03-20T16:15:44;3.85;;;1.70;;
69240;SDS011;56352;55.750;13.198;2023-03-20T16:18:13;7.28;;;2.00;;
69240;SDS011;56352;55.750;13.198;2023-03-20T16:20:46;2.03;;;1.50;;
69240;SDS011;56352;55.750;13.198;2023-03-20T16:23:18;5.25;;;1.92;;
69240;SDS011;56352;55.750;13.198;2023-03-20T16:25:45;1.77;;;1.55;;
69240;SDS011;56352;55.750;13.198;2023-03-20T16:28:11;3.58;;;1.60;;
69240;SDS011;56352;55.750;13.198;2023-03-20T16:30:39;3.80;;;2.22;;
69240;SDS011;56352;55.750;13.198;2023-03-20T16:33:08;4.15;;;2.90;;
69240;SDS011;56352;55.750;13.198;2023-03-20T16:35:38;5.93;;;3.58;;
69240;SDS011;56352;55.750;13.198;2023-03-20T16:38:19;3.65;;;2.13;;
69240;SDS011;56352;55.750;13.198;2023-03-20T16:40:48;5.30;;;3.38;;
69240;SDS011;56352;55.750;13.198;2023-03-20T16:43:16;5.68;;;2.97;;
69240;SDS011;56352;55.750;13.198;2023-03-20T16:45:44;5.82;;;4.45;;
69240;SDS011;56352;55.750;13.198;2023-03-20T16:53:04;10.27;;;6.80;;
69240;SDS011;56352;55.750;13.198;2023-03-20T16:55:35;7.63;;;4.57;;
69240;SDS011;56352;55.750;13.198;2023-03-20T16:58:03;6.82;;;4.40;;
69240;SDS011;56352;55.750;13.198;2023-03-20T17:00:32;3.60;;;2.40;;
69240;SDS011;56352;55.750;13.198;2023-03-20T17:03:00;2.67;;;1.92;;
69240;SDS011;56352;55.750;13.198;2023-03-20T17:06:25;3.78;;;2.42;;
69240;SDS011;56352;55.750;13.198;2023-03-20T17:08:33;4.35;;;2.60;;
69240;SDS011;56352;55.750;13.198;2023-03-20T17:13:26;4.70;;;2.58;;
69240;SDS011;56352;55.750;13.198;2023-03-20T17:15:53;4.25;;;1.75;;
69240;SDS011;56352;55.750;13.198;2023-03-20T17:18:19;3.35;;;1.90;;
69240;SDS011;56352;55.750;13.198;2023-03-20T17:20:46;3.92;;;2.78;;
69240;SDS011;56352;55.750;13.198;2023-03-20T17:23:13;4.35;;;2.00;;
69240;SDS011;56352;55.750;13.198;2023-03-20T17:25:39;4.45;;;1.80;;
69240;SDS011;56352;55.750;13.198;2023-03-20T17:28:08;4.45;;;1.90;;
69240;SDS011;56352;55.750;13.198;2023-03-20T17:30:34;5.70;;;1.97;;